Terminal Aerodrome Forecast
Issued by NWS

Home | Current Version | Previous Version | Text Only | Print | Product List | Glossary On
Versions: 1 2 3 4 5 6 7 8 9 10 11 12 13 14 15 16 17 18 19
000
FTUS43 KMPX 031740
TAFAXN
TAF
KAXN 031740Z 0318/0418 12014KT P6SM SCT007
      TEMPO 0318/0319 BKN007
     FM032000 14012KT P6SM SKC
     FM040600 12009KT 6SM BR SCT004
     FM041500 14013KT P6SM SKC=

USA.gov is the U.S. government's official web portal to all federal, state and local government web resources and services.